sensor_id;sensor_type;location;lat;lon;timestamp;pressure;altitude;pressure_sealevel;temperature;humidity
44103;BME280;29769;42.178;24.742;2022-09-29T00:00:33;98646.28;;;16.43;100.00
44103;BME280;29769;42.178;24.742;2022-09-29T00:03:19;98641.59;;;16.48;100.00
44103;BME280;29769;42.178;24.742;2022-09-29T00:06:08;98635.56;;;16.44;100.00
44103;BME280;29769;42.178;24.742;2022-09-29T00:08:54;98631.47;;;16.39;100.00
44103;BME280;29769;42.178;24.742;2022-09-29T00:11:38;98639.50;;;16.37;100.00
44103;BME280;29769;42.178;24.742;2022-09-29T00:14:23;98634.03;;;16.40;100.00
44103;BME280;29769;42.178;24.742;2022-09-29T00:17:08;98626.59;;;16.47;100.00
44103;BME280;29769;42.178;24.742;2022-09-29T00:19:52;98621.72;;;16.39;100.00
44103;BME280;29769;42.178;24.742;2022-09-29T00:22:37;98624.25;;;16.41;100.00
44103;BME280;29769;42.178;24.742;2022-09-29T00:25:21;98621.78;;;16.38;100.00
44103;BME280;29769;42.178;24.742;2022-09-29T00:28:07;98628.03;;;16.37;100.00
44103;BME280;29769;42.178;24.742;2022-09-29T00:30:51;98615.88;;;16.33;100.00
44103;BME280;29769;42.178;24.742;2022-09-29T00:33:36;98612.28;;;16.34;100.00
44103;BME280;29769;42.178;24.742;2022-09-29T00:36:21;98614.53;;;16.26;100.00
44103;BME280;29769;42.178;24.742;2022-09-29T00:39:06;98610.03;;;16.11;100.00
44103;BME280;29769;42.178;24.742;2022-09-29T00:41:51;98604.31;;;16.02;100.00
44103;BME280;29769;42.178;24.742;2022-09-29T00:47:32;98615.16;;;16.14;100.00
44103;BME280;29769;42.178;24.742;2022-09-29T00:50:33;98614.81;;;16.04;100.00
44103;BME280;29769;42.178;24.742;2022-09-29T00:53:23;98609.75;;;15.99;100.00
44103;BME280;29769;42.178;24.742;2022-09-29T00:56:10;98614.38;;;15.96;100.00
44103;BME280;29769;42.178;24.742;2022-09-29T00:59:00;98623.53;;;15.90;100.00
44103;BME280;29769;42.178;24.742;2022-09-29T01:01:46;98618.88;;;15.78;100.00
44103;BME280;29769;42.178;24.742;2022-09-29T01:04:31;98615.44;;;15.76;100.00
44103;BME280;29769;42.178;24.742;2022-09-29T01:07:16;98616.88;;;15.66;100.00
44103;BME280;29769;42.178;24.742;2022-09-29T01:10:01;98625.69;;;15.67;100.00
44103;BME280;29769;42.178;24.742;2022-09-29T01:12:46;98628.72;;;15.59;100.00
44103;BME280;29769;42.178;24.742;2022-09-29T01:15:31;98631.38;;;15.59;100.00
44103;BME280;29769;42.178;24.742;2022-09-29T01:18:16;98633.41;;;15.54;100.00
44103;BME280;29769;42.178;24.742;2022-09-29T01:21:10;98633.34;;;15.55;100.00
44103;BME280;29769;42.178;24.742;2022-09-29T01:26:57;98636.16;;;15.52;100.00
44103;BME280;29769;42.178;24.742;2022-09-29T01:36:06;98664.75;;;14.19;100.00
44103;BME280;29769;42.178;24.742;2022-09-29T01:39:13;98660.94;;;14.06;100.00
44103;BME280;29769;42.178;24.742;2022-09-29T01:47:36;98664.94;;;13.96;100.00
44103;BME280;29769;42.178;24.742;2022-09-29T01:50:26;98683.94;;;14.04;100.00
44103;BME280;29769;42.178;24.742;2022-09-29T01:53:13;98684.50;;;13.72;100.00
44103;BME280;29769;42.178;24.742;2022-09-29T01:56:01;98692.22;;;13.58;100.00
44103;BME280;29769;42.178;24.742;2022-09-29T02:01:33;98699.69;;;13.26;100.00
44103;BME280;29769;42.178;24.742;2022-09-29T02:04:21;98703.19;;;13.27;100.00
44103;BME280;29769;42.178;24.742;2022-09-29T02:07:51;98696.13;;;13.27;100.00
44103;BME280;29769;42.178;24.742;2022-09-29T02:10:18;98696.03;;;13.30;100.00
44103;BME280;29769;42.178;24.742;2022-09-29T02:13:05;98703.47;;;13.21;100.00
44103;BME280;29769;42.178;24.742;2022-09-29T02:15:53;98691.72;;;13.06;100.00
44103;BME280;29769;42.178;24.742;2022-09-29T02:18:41;98692.16;;;12.96;100.00
44103;BME280;29769;42.178;24.742;2022-09-29T02:21:27;98688.44;;;13.00;100.00
44103;BME280;29769;42.178;24.742;2022-09-29T02:24:12;98691.84;;;13.03;100.00
44103;BME280;29769;42.178;24.742;2022-09-29T02:26:57;98692.88;;;12.99;100.00
44103;BME280;29769;42.178;24.742;2022-09-29T02:29:41;98710.25;;;12.83;100.00
44103;BME280;29769;42.178;24.742;2022-09-29T02:32:26;98700.19;;;12.71;100.00
44103;BME280;29769;42.178;24.742;2022-09-29T02:35:12;98693.44;;;12.64;100.00
44103;BME280;29769;42.178;24.742;2022-09-29T02:40:46;98691.59;;;12.44;100.00
44103;BME280;29769;42.178;24.742;2022-09-29T02:58:17;98695.72;;;12.28;100.00
44103;BME280;29769;42.178;24.742;2022-09-29T03:01:04;98700.72;;;12.35;100.00
44103;BME280;29769;42.178;24.742;2022-09-29T03:03:50;98695.19;;;12.41;100.00
44103;BME280;29769;42.178;24.742;2022-09-29T03:06:35;98703.59;;;12.51;100.00
44103;BME280;29769;42.178;24.742;2022-09-29T03:09:20;98707.38;;;12.67;100.00
44103;BME280;29769;42.178;24.742;2022-09-29T03:12:04;98712.47;;;12.72;100.00
44103;BME280;29769;42.178;24.742;2022-09-29T03:14:49;98713.50;;;12.68;100.00
44103;BME280;29769;42.178;24.742;2022-09-29T03:17:34;98713.97;;;12.56;100.00
44103;BME280;29769;42.178;24.742;2022-09-29T03:20:18;98702.13;;;12.44;100.00
44103;BME280;29769;42.178;24.742;2022-09-29T03:23:04;98702.31;;;12.39;100.00
44103;BME280;29769;42.178;24.742;2022-09-29T03:25:49;98696.44;;;12.31;100.00
44103;BME280;29769;42.178;24.742;2022-09-29T03:28:33;98687.94;;;12.25;100.00
44103;BME280;29769;42.178;24.742;2022-09-29T03:31:18;98686.75;;;12.32;100.00
44103;BME280;29769;42.178;24.742;2022-09-29T03:34:03;98691.94;;;12.35;100.00
44103;BME280;29769;42.178;24.742;2022-09-29T03:36:47;98696.97;;;12.41;100.00
44103;BME280;29769;42.178;24.742;2022-09-29T03:39:32;98698.81;;;12.39;100.00
44103;BME280;29769;42.178;24.742;2022-09-29T03:42:16;98696.28;;;12.36;100.00
44103;BME280;29769;42.178;24.742;2022-09-29T03:45:01;98696.22;;;12.37;100.00
44103;BME280;29769;42.178;24.742;2022-09-29T03:47:45;98705.81;;;12.40;100.00
44103;BME280;29769;42.178;24.742;2022-09-29T03:50:30;98708.44;;;12.40;100.00
44103;BME280;29769;42.178;24.742;2022-09-29T03:53:14;98716.63;;;12.32;100.00
44103;BME280;29769;42.178;24.742;2022-09-29T03:55:59;98718.41;;;12.32;100.00
44103;BME280;29769;42.178;24.742;2022-09-29T03:58:44;98713.59;;;12.20;100.00
44103;BME280;29769;42.178;24.742;2022-09-29T04:01:29;98713.09;;;12.10;100.00
44103;BME280;29769;42.178;24.742;2022-09-29T04:04:13;98711.66;;;12.01;100.00
44103;BME280;29769;42.178;24.742;2022-09-29T04:06:58;98722.84;;;12.08;100.00
44103;BME280;29769;42.178;24.742;2022-09-29T04:09:42;98725.75;;;12.24;100.00
44103;BME280;29769;42.178;24.742;2022-09-29T04:12:27;98731.16;;;12.21;100.00
44103;BME280;29769;42.178;24.742;2022-09-29T04:15:12;98734.53;;;12.24;100.00
44103;BME280;29769;42.178;24.742;2022-09-29T04:17:56;98730.06;;;12.26;100.00
44103;BME280;29769;42.178;24.742;2022-09-29T04:20:41;98742.09;;;12.33;100.00
44103;BME280;29769;42.178;24.742;2022-09-29T04:23:26;98740.66;;;12.48;100.00
44103;BME280;29769;42.178;24.742;2022-09-29T04:26:12;98740.88;;;12.65;100.00
44103;BME280;29769;42.178;24.742;2022-09-29T04:28:57;98741.38;;;12.75;100.00
44103;BME280;29769;42.178;24.742;2022-09-29T04:31:41;98756.91;;;12.82;100.00
44103;BME280;29769;42.178;24.742;2022-09-29T04:34:26;98757.81;;;12.81;100.00
44103;BME280;29769;42.178;24.742;2022-09-29T04:37:10;98750.25;;;12.72;100.00
44103;BME280;29769;42.178;24.742;2022-09-29T04:39:55;98770.06;;;12.61;100.00
44103;BME280;29769;42.178;24.742;2022-09-29T04:42:40;98786.25;;;12.52;100.00
44103;BME280;29769;42.178;24.742;2022-09-29T04:45:24;98795.50;;;12.40;100.00
44103;BME280;29769;42.178;24.742;2022-09-29T04:48:09;98790.94;;;12.43;100.00
44103;BME280;29769;42.178;24.742;2022-09-29T04:50:53;98791.69;;;12.70;100.00
44103;BME280;29769;42.178;24.742;2022-09-29T04:53:38;98797.69;;;12.97;100.00
44103;BME280;29769;42.178;24.742;2022-09-29T04:56:22;98791.16;;;13.29;100.00
44103;BME280;29769;42.178;24.742;2022-09-29T04:59:07;98786.31;;;13.60;100.00
44103;BME280;29769;42.178;24.742;2022-09-29T05:01:52;98774.69;;;14.05;100.00
44103;BME280;29769;42.178;24.742;2022-09-29T05:04:37;98779.44;;;14.57;100.00
44103;BME280;29769;42.178;24.742;2022-09-29T05:07:22;98783.72;;;14.97;100.00
44103;BME280;29769;42.178;24.742;2022-09-29T05:10:07;98793.00;;;15.25;100.00
44103;BME280;29769;42.178;24.742;2022-09-29T05:12:52;98793.03;;;14.87;100.00
44103;BME280;29769;42.178;24.742;2022-09-29T05:15:37;98793.44;;;14.97;100.00
44103;BME280;29769;42.178;24.742;2022-09-29T05:18:22;98791.00;;;15.11;100.00
44103;BME280;29769;42.178;24.742;2022-09-29T05:21:07;98798.56;;;15.37;100.00
44103;BME280;29769;42.178;24.742;2022-09-29T05:23:52;98793.72;;;15.81;100.00
44103;BME280;29769;42.178;24.742;2022-09-29T05:26:36;98789.63;;;16.43;100.00
44103;BME280;29769;42.178;24.742;2022-09-29T05:29:21;98782.97;;;16.84;100.00
44103;BME280;29769;42.178;24.742;2022-09-29T05:32:06;98792.28;;;17.23;100.00
44103;BME280;29769;42.178;24.742;2022-09-29T05:34:51;98791.63;;;16.88;100.00
44103;BME280;29769;42.178;24.742;2022-09-29T05:37:35;98789.06;;;17.02;100.00
44103;BME280;29769;42.178;24.742;2022-09-29T05:40:20;98787.59;;;17.12;100.00
44103;BME280;29769;42.178;24.742;2022-09-29T05:43:07;98781.94;;;17.18;100.00
44103;BME280;29769;42.178;24.742;2022-09-29T05:45:51;98783.28;;;17.41;100.00
44103;BME280;29769;42.178;24.742;2022-09-29T05:48:36;98780.31;;;17.77;100.00
44103;BME280;29769;42.178;24.742;2022-09-29T05:51:21;98781.19;;;18.07;100.00
44103;BME280;29769;42.178;24.742;2022-09-29T05:54:06;98777.50;;;18.52;100.00
44103;BME280;29769;42.178;24.742;2022-09-29T05:56:51;98767.72;;;19.22;100.00
44103;BME280;29769;42.178;24.742;2022-09-29T05:59:36;98769.66;;;19.74;100.00
44103;BME280;29769;42.178;24.742;2022-09-29T06:02:24;98758.22;;;20.49;100.00
44103;BME280;29769;42.178;24.742;2022-09-29T06:05:08;98759.78;;;21.39;95.26
44103;BME280;29769;42.178;24.742;2022-09-29T06:07:53;98768.56;;;21.99;89.73
44103;BME280;29769;42.178;24.742;2022-09-29T06:10:39;98747.88;;;22.92;78.71
44103;BME280;29769;42.178;24.742;2022-09-29T06:13:24;98744.63;;;23.95;71.16
44103;BME280;29769;42.178;24.742;2022-09-29T06:16:09;98752.78;;;24.97;64.44
44103;BME280;29769;42.178;24.742;2022-09-29T06:18:53;98751.81;;;25.17;61.40
44103;BME280;29769;42.178;24.742;2022-09-29T06:21:38;98738.19;;;25.59;59.08
44103;BME280;29769;42.178;24.742;2022-09-29T06:24:23;98730.38;;;26.23;56.03
44103;BME280;29769;42.178;24.742;2022-09-29T06:27:08;98735.00;;;26.87;51.86
44103;BME280;29769;42.178;24.742;2022-09-29T06:29:53;98735.94;;;27.50;48.97
44103;BME280;29769;42.178;24.742;2022-09-29T06:32:38;98747.44;;;28.49;46.10
44103;BME280;29769;42.178;24.742;2022-09-29T06:35:22;98742.63;;;29.28;43.60
44103;BME280;29769;42.178;24.742;2022-09-29T06:38:25;98744.97;;;29.81;41.25
44103;BME280;29769;42.178;24.742;2022-09-29T06:41:10;98725.00;;;30.47;39.59
44103;BME280;29769;42.178;24.742;2022-09-29T06:43:54;98724.94;;;30.71;38.11
44103;BME280;29769;42.178;24.742;2022-09-29T06:46:39;98736.41;;;30.98;37.79
44103;BME280;29769;42.178;24.742;2022-09-29T06:49:23;98739.66;;;30.93;38.12
44103;BME280;29769;42.178;24.742;2022-09-29T06:52:08;98745.31;;;31.22;37.25
44103;BME280;29769;42.178;24.742;2022-09-29T06:54:52;98742.53;;;31.39;36.15
44103;BME280;29769;42.178;24.742;2022-09-29T06:57:37;98747.97;;;31.39;35.58
44103;BME280;29769;42.178;24.742;2022-09-29T07:00:24;98749.53;;;31.87;35.72
44103;BME280;29769;42.178;24.742;2022-09-29T07:03:08;98748.41;;;31.50;35.96
44103;BME280;29769;42.178;24.742;2022-09-29T07:05:53;98748.25;;;31.13;36.54
44103;BME280;29769;42.178;24.742;2022-09-29T07:08:37;98757.72;;;30.62;38.63
44103;BME280;29769;42.178;24.742;2022-09-29T07:11:23;98762.25;;;29.80;40.53
44103;BME280;29769;42.178;24.742;2022-09-29T07:14:08;98765.38;;;29.35;41.43
44103;BME280;29769;42.178;24.742;2022-09-29T07:16:52;98772.81;;;29.33;41.64
44103;BME280;29769;42.178;24.742;2022-09-29T07:19:37;98773.00;;;30.06;41.57
44103;BME280;29769;42.178;24.742;2022-09-29T07:22:22;98756.81;;;30.77;38.59
44103;BME280;29769;42.178;24.742;2022-09-29T07:25:07;98748.44;;;31.96;35.13
44103;BME280;29769;42.178;24.742;2022-09-29T07:27:51;98754.75;;;32.56;34.97
44103;BME280;29769;42.178;24.742;2022-09-29T07:30:36;98759.91;;;33.90;32.39
44103;BME280;29769;42.178;24.742;2022-09-29T07:33:20;98758.28;;;34.87;30.76
44103;BME280;29769;42.178;24.742;2022-09-29T07:36:05;98754.53;;;35.90;29.01
44103;BME280;29769;42.178;24.742;2022-09-29T07:38:50;98753.34;;;36.78;27.56
44103;BME280;29769;42.178;24.742;2022-09-29T07:41:34;98763.19;;;37.18;27.08
44103;BME280;29769;42.178;24.742;2022-09-29T07:44:19;98767.69;;;37.64;26.47
44103;BME280;29769;42.178;24.742;2022-09-29T07:47:03;98762.84;;;37.97;25.75
44103;BME280;29769;42.178;24.742;2022-09-29T07:49:48;98768.88;;;38.12;25.83
44103;BME280;29769;42.178;24.742;2022-09-29T07:52:32;98776.41;;;38.80;24.58
44103;BME280;29769;42.178;24.742;2022-09-29T07:55:17;98774.47;;;39.23;23.88
44103;BME280;29769;42.178;24.742;2022-09-29T07:58:01;98779.06;;;39.11;23.98
44103;BME280;29769;42.178;24.742;2022-09-29T08:00:51;98776.16;;;38.00;24.61
44103;BME280;29769;42.178;24.742;2022-09-29T08:03:40;98788.72;;;37.76;25.06
44103;BME280;29769;42.178;24.742;2022-09-29T08:06:25;98786.78;;;37.83;24.63
44103;BME280;29769;42.178;24.742;2022-09-29T08:09:10;98789.25;;;37.54;24.99
44103;BME280;29769;42.178;24.742;2022-09-29T08:11:54;98784.00;;;37.39;24.87
44103;BME280;29769;42.178;24.742;2022-09-29T08:14:39;98783.91;;;36.88;25.19
44103;BME280;29769;42.178;24.742;2022-09-29T08:17:24;98791.09;;;38.11;24.40
44103;BME280;29769;42.178;24.742;2022-09-29T08:20:10;98782.88;;;36.63;26.04
44103;BME280;29769;42.178;24.742;2022-09-29T08:22:54;98791.63;;;35.92;26.32
44103;BME280;29769;42.178;24.742;2022-09-29T08:25:40;98789.63;;;34.91;27.26
44103;BME280;29769;42.178;24.742;2022-09-29T08:28:25;98795.09;;;34.91;27.40
44103;BME280;29769;42.178;24.742;2022-09-29T08:31:10;98790.41;;;34.85;27.32
44103;BME280;29769;42.178;24.742;2022-09-29T08:33:57;98781.19;;;36.75;25.93
44103;BME280;29769;42.178;24.742;2022-09-29T08:36:44;98785.53;;;38.17;24.39
44103;BME280;29769;42.178;24.742;2022-09-29T08:39:28;98791.78;;;38.31;23.42
44103;BME280;29769;42.178;24.742;2022-09-29T08:45:10;98783.56;;;40.50;21.40
44103;BME280;29769;42.178;24.742;2022-09-29T08:48:05;98784.00;;;41.75;21.08
44103;BME280;29769;42.178;24.742;2022-09-29T08:51:42;98786.63;;;40.60;21.15
44103;BME280;29769;42.178;24.742;2022-09-29T08:54:00;98789.94;;;38.56;23.18
44103;BME280;29769;42.178;24.742;2022-09-29T08:56:46;98780.25;;;37.33;24.34
44103;BME280;29769;42.178;24.742;2022-09-29T08:59:30;98782.19;;;36.93;24.81
44103;BME280;29769;42.178;24.742;2022-09-29T09:13:54;98771.94;;;41.92;19.45
44103;BME280;29769;42.178;24.742;2022-09-29T09:25:37;98763.44;;;44.83;17.59
44103;BME280;29769;42.178;24.742;2022-09-29T09:31:29;98755.38;;;44.50;17.63
44103;BME280;29769;42.178;24.742;2022-09-29T09:37:10;98743.56;;;40.82;20.48
44103;BME280;29769;42.178;24.742;2022-09-29T09:40:13;98742.75;;;38.03;22.86
44103;BME280;29769;42.178;24.742;2022-09-29T09:43:02;98740.38;;;38.38;23.30
44103;BME280;29769;42.178;24.742;2022-09-29T09:45:50;98740.44;;;37.69;23.99
44103;BME280;29769;42.178;24.742;2022-09-29T09:48:40;98739.16;;;37.20;24.43
44103;BME280;29769;42.178;24.742;2022-09-29T09:57:17;98726.97;;;36.90;24.70
44103;BME280;29769;42.178;24.742;2022-09-29T10:02:57;98729.50;;;35.86;26.40
44103;BME280;29769;42.178;24.742;2022-09-29T10:05:45;98740.28;;;36.40;25.75
44103;BME280;29769;42.178;24.742;2022-09-29T10:08:32;98740.88;;;36.03;25.91
44103;BME280;29769;42.178;24.742;2022-09-29T10:11:29;98741.50;;;35.24;27.29
44103;BME280;29769;42.178;24.742;2022-09-29T10:14:24;98750.09;;;35.76;26.80
44103;BME280;29769;42.178;24.742;2022-09-29T10:17:10;98746.63;;;36.67;25.02
44103;BME280;29769;42.178;24.742;2022-09-29T10:20:00;98744.78;;;37.32;24.76
44103;BME280;29769;42.178;24.742;2022-09-29T10:22:45;98743.41;;;37.99;24.02
44103;BME280;29769;42.178;24.742;2022-09-29T10:25:31;98740.69;;;38.98;23.20
44103;BME280;29769;42.178;24.742;2022-09-29T10:28:16;98754.53;;;38.91;22.35
44103;BME280;29769;42.178;24.742;2022-09-29T10:31:01;98753.47;;;38.43;23.23
44103;BME280;29769;42.178;24.742;2022-09-29T10:33:48;98750.84;;;38.54;23.26
44103;BME280;29769;42.178;24.742;2022-09-29T10:36:45;98748.09;;;39.70;22.21
44103;BME280;29769;42.178;24.742;2022-09-29T10:50:48;98715.81;;;38.93;22.56
44103;BME280;29769;42.178;24.742;2022-09-29T10:53:34;98720.53;;;39.88;22.22
44103;BME280;29769;42.178;24.742;2022-09-29T10:56:20;98719.38;;;40.61;21.07
44103;BME280;29769;42.178;24.742;2022-09-29T10:59:05;98724.38;;;41.10;20.36
44103;BME280;29769;42.178;24.742;2022-09-29T11:01:54;98727.22;;;41.67;19.93
44103;BME280;29769;42.178;24.742;2022-09-29T11:04:40;98718.16;;;41.83;19.82
44103;BME280;29769;42.178;24.742;2022-09-29T11:07:28;98720.00;;;42.39;19.27
44103;BME280;29769;42.178;24.742;2022-09-29T11:19:11;98703.72;;;43.36;18.44
44103;BME280;29769;42.178;24.742;2022-09-29T11:30:22;98683.97;;;42.68;18.83
44103;BME280;29769;42.178;24.742;2022-09-29T11:36:11;98690.66;;;44.02;18.01
44103;BME280;29769;42.178;24.742;2022-09-29T11:39:11;98682.50;;;44.22;17.70
44103;BME280;29769;42.178;24.742;2022-09-29T11:50:53;98682.25;;;46.97;15.54
44103;BME280;29769;42.178;24.742;2022-09-29T12:05:08;98672.19;;;41.20;19.92
44103;BME280;29769;42.178;24.742;2022-09-29T12:08:14;98669.25;;;41.27;19.74
44103;BME280;29769;42.178;24.742;2022-09-29T12:16:34;98664.66;;;45.44;16.49
44103;BME280;29769;42.178;24.742;2022-09-29T12:19:22;98657.53;;;45.99;15.89
44103;BME280;29769;42.178;24.742;2022-09-29T12:22:09;98660.00;;;46.71;15.53
44103;BME280;29769;42.178;24.742;2022-09-29T12:24:55;98661.03;;;47.11;14.78
44103;BME280;29769;42.178;24.742;2022-09-29T12:27:41;98672.56;;;46.54;15.52
44103;BME280;29769;42.178;24.742;2022-09-29T12:30:29;98663.09;;;44.59;16.47
44103;BME280;29769;42.178;24.742;2022-09-29T12:33:16;98657.34;;;45.23;16.03
44103;BME280;29769;42.178;24.742;2022-09-29T12:36:09;98650.16;;;45.32;15.95
44103;BME280;29769;42.178;24.742;2022-09-29T12:39:30;98649.78;;;46.06;15.67
44103;BME280;29769;42.178;24.742;2022-09-29T12:48:14;98655.56;;;47.50;14.44
44103;BME280;29769;42.178;24.742;2022-09-29T12:51:08;98651.72;;;47.41;14.67
44103;BME280;29769;42.178;24.742;2022-09-29T12:56:44;98660.00;;;47.51;14.78
44103;BME280;29769;42.178;24.742;2022-09-29T12:59:32;98658.59;;;46.89;15.11
44103;BME280;29769;42.178;24.742;2022-09-29T13:14:24;98647.25;;;46.05;15.61
44103;BME280;29769;42.178;24.742;2022-09-29T13:20:50;98647.75;;;44.10;16.89
44103;BME280;29769;42.178;24.742;2022-09-29T13:23:14;98647.00;;;42.95;17.47
44103;BME280;29769;42.178;24.742;2022-09-29T13:26:11;98643.69;;;40.92;19.03
44103;BME280;29769;42.178;24.742;2022-09-29T13:29:00;98642.09;;;39.79;20.13
44103;BME280;29769;42.178;24.742;2022-09-29T13:31:46;98642.75;;;39.33;20.38
44103;BME280;29769;42.178;24.742;2022-09-29T13:34:32;98642.97;;;38.16;22.16
44103;BME280;29769;42.178;24.742;2022-09-29T13:37:18;98648.91;;;37.06;23.21
44103;BME280;29769;42.178;24.742;2022-09-29T13:40:05;98638.34;;;35.79;24.64
44103;BME280;29769;42.178;24.742;2022-09-29T13:42:54;98635.59;;;35.12;25.29
44103;BME280;29769;42.178;24.742;2022-09-29T13:45:40;98644.28;;;34.40;26.11
44103;BME280;29769;42.178;24.742;2022-09-29T13:51:25;98649.38;;;33.51;27.64
44103;BME280;29769;42.178;24.742;2022-09-29T14:02:46;98649.13;;;31.31;30.59
44103;BME280;29769;42.178;24.742;2022-09-29T14:05:34;98641.00;;;31.01;31.35
44103;BME280;29769;42.178;24.742;2022-09-29T14:08:21;98650.44;;;31.13;31.66
44103;BME280;29769;42.178;24.742;2022-09-29T14:14:00;98629.75;;;30.73;31.59
44103;BME280;29769;42.178;24.742;2022-09-29T14:25:26;98648.72;;;30.18;32.53
44103;BME280;29769;42.178;24.742;2022-09-29T14:28:12;98644.47;;;30.23;32.87
44103;BME280;29769;42.178;24.742;2022-09-29T14:30:58;98650.06;;;30.22;33.41
44103;BME280;29769;42.178;24.742;2022-09-29T14:33:46;98650.09;;;30.14;33.31
44103;BME280;29769;42.178;24.742;2022-09-29T14:36:33;98654.53;;;30.07;33.60
44103;BME280;29769;42.178;24.742;2022-09-29T14:39:17;98650.06;;;30.22;33.55
44103;BME280;29769;42.178;24.742;2022-09-29T14:42:03;98651.91;;;30.45;32.98
44103;BME280;29769;42.178;24.742;2022-09-29T14:44:49;98659.25;;;30.84;32.43
44103;BME280;29769;42.178;24.742;2022-09-29T14:47:58;98648.25;;;31.08;32.05
44103;BME280;29769;42.178;24.742;2022-09-29T14:51:18;98653.50;;;31.41;31.61
44103;BME280;29769;42.178;24.742;2022-09-29T14:58:09;98646.38;;;31.85;31.18
44103;BME280;29769;42.178;24.742;2022-09-29T15:00:27;98651.38;;;31.28;31.19
44103;BME280;29769;42.178;24.742;2022-09-29T15:03:27;98663.78;;;30.91;31.90
44103;BME280;29769;42.178;24.742;2022-09-29T15:06:14;98651.06;;;30.37;33.15
44103;BME280;29769;42.178;24.742;2022-09-29T15:11:47;98659.94;;;29.66;33.44
44103;BME280;29769;42.178;24.742;2022-09-29T15:14:33;98663.63;;;29.41;34.41
44103;BME280;29769;42.178;24.742;2022-09-29T15:26:03;98673.44;;;28.58;36.24
44103;BME280;29769;42.178;24.742;2022-09-29T15:28:48;98671.06;;;28.55;36.29
44103;BME280;29769;42.178;24.742;2022-09-29T15:31:33;98669.75;;;28.67;36.32
44103;BME280;29769;42.178;24.742;2022-09-29T15:34:18;98668.88;;;28.84;36.20
44103;BME280;29769;42.178;24.742;2022-09-29T15:37:04;98674.31;;;29.00;36.09
44103;BME280;29769;42.178;24.742;2022-09-29T15:39:50;98674.81;;;28.96;36.08
44103;BME280;29769;42.178;24.742;2022-09-29T15:42:36;98676.63;;;28.79;35.95
44103;BME280;29769;42.178;24.742;2022-09-29T15:45:22;98679.22;;;28.63;36.41
44103;BME280;29769;42.178;24.742;2022-09-29T15:48:09;98679.78;;;28.41;36.59
44103;BME280;29769;42.178;24.742;2022-09-29T15:50:55;98683.53;;;28.22;37.77
44103;BME280;29769;42.178;24.742;2022-09-29T15:53:40;98684.88;;;27.57;39.90
44103;BME280;29769;42.178;24.742;2022-09-29T15:56:25;98690.72;;;27.34;40.11
44103;BME280;29769;42.178;24.742;2022-09-29T15:59:16;98693.09;;;27.37;40.12
44103;BME280;29769;42.178;24.742;2022-09-29T16:02:01;98697.03;;;27.25;41.08
44103;BME280;29769;42.178;24.742;2022-09-29T16:04:50;98696.03;;;26.99;41.77
44103;BME280;29769;42.178;24.742;2022-09-29T16:07:37;98694.56;;;26.77;42.81
44103;BME280;29769;42.178;24.742;2022-09-29T16:10:27;98700.59;;;26.62;43.46
44103;BME280;29769;42.178;24.742;2022-09-29T16:13:29;98706.47;;;26.47;43.94
44103;BME280;29769;42.178;24.742;2022-09-29T16:16:15;98716.16;;;26.31;44.66
44103;BME280;29769;42.178;24.742;2022-09-29T16:19:06;98711.34;;;26.15;45.21
44103;BME280;29769;42.178;24.742;2022-09-29T16:21:53;98717.75;;;26.04;45.81
44103;BME280;29769;42.178;24.742;2022-09-29T16:24:49;98714.19;;;25.94;46.02
44103;BME280;29769;42.178;24.742;2022-09-29T16:27:49;98718.78;;;25.84;45.36
44103;BME280;29769;42.178;24.742;2022-09-29T16:30:36;98733.22;;;25.74;46.12
44103;BME280;29769;42.178;24.742;2022-09-29T16:33:23;98718.78;;;25.55;48.96
44103;BME280;29769;42.178;24.742;2022-09-29T16:38:55;98731.06;;;25.48;47.56
44103;BME280;29769;42.178;24.742;2022-09-29T16:41:40;98740.41;;;25.35;49.40
44103;BME280;29769;42.178;24.742;2022-09-29T16:44:27;98751.09;;;25.06;50.48
44103;BME280;29769;42.178;24.742;2022-09-29T16:47:13;98757.19;;;25.08;48.58
44103;BME280;29769;42.178;24.742;2022-09-29T16:50:03;98751.41;;;24.82;50.40
44103;BME280;29769;42.178;24.742;2022-09-29T16:52:50;98746.94;;;24.71;50.96
44103;BME280;29769;42.178;24.742;2022-09-29T16:55:35;98757.59;;;24.73;51.54
44103;BME280;29769;42.178;24.742;2022-09-29T16:58:19;98759.38;;;24.63;52.26
44103;BME280;29769;42.178;24.742;2022-09-29T17:01:04;98763.25;;;24.49;53.29
44103;BME280;29769;42.178;24.742;2022-09-29T17:03:49;98762.78;;;24.34;56.93
44103;BME280;29769;42.178;24.742;2022-09-29T17:06:34;98759.75;;;24.28;57.85
44103;BME280;29769;42.178;24.742;2022-09-29T17:09:19;98753.97;;;24.12;55.75
44103;BME280;29769;42.178;24.742;2022-09-29T17:12:07;98760.84;;;24.05;56.62
44103;BME280;29769;42.178;24.742;2022-09-29T17:14:53;98769.28;;;24.00;56.71
44103;BME280;29769;42.178;24.742;2022-09-29T17:17:37;98781.94;;;23.88;55.28
44103;BME280;29769;42.178;24.742;2022-09-29T17:20:26;98773.41;;;23.83;54.35
44103;BME280;29769;42.178;24.742;2022-09-29T17:23:14;98766.69;;;23.78;53.99
44103;BME280;29769;42.178;24.742;2022-09-29T17:25:58;98770.81;;;23.82;56.02
44103;BME280;29769;42.178;24.742;2022-09-29T17:29:03;98780.63;;;23.72;55.90
44103;BME280;29769;42.178;24.742;2022-09-29T17:31:48;98778.59;;;23.64;56.51
44103;BME280;29769;42.178;24.742;2022-09-29T17:34:33;98792.28;;;23.50;57.17
44103;BME280;29769;42.178;24.742;2022-09-29T17:37:18;98789.38;;;23.42;58.60
44103;BME280;29769;42.178;24.742;2022-09-29T17:40:09;98799.50;;;23.38;57.26
44103;BME280;29769;42.178;24.742;2022-09-29T17:42:57;98803.03;;;23.39;56.91
44103;BME280;29769;42.178;24.742;2022-09-29T17:45:45;98808.91;;;23.44;56.59